createdAt,value
2023-04-02T00:01:43.835Z,8.84
2023-04-02T00:04:19.030Z,8.86
2023-04-02T00:06:45.505Z,8.85
2023-04-02T00:09:14.969Z,8.88
2023-04-02T00:11:44.762Z,8.85
2023-04-02T00:14:27.501Z,8.89
2023-04-02T00:16:55.770Z,8.91
2023-04-02T00:19:33.686Z,8.84
2023-04-02T00:22:02.093Z,8.80
2023-04-02T00:24:28.607Z,8.73
2023-04-02T00:26:55.788Z,8.67
2023-04-02T00:29:22.333Z,8.68
2023-04-02T00:31:51.623Z,8.72
2023-04-02T00:34:25.826Z,8.71
2023-04-02T00:36:52.562Z,8.61
2023-04-02T00:39:27.893Z,8.56
2023-04-02T00:41:56.368Z,8.50
2023-04-02T00:44:22.954Z,8.50
2023-04-02T00:46:51.058Z,8.49
2023-04-02T00:49:23.434Z,8.44
2023-04-02T00:51:55.156Z,8.42
2023-04-02T00:54:25.278Z,8.37
2023-04-02T00:56:57.120Z,8.31
2023-04-02T00:59:30.902Z,8.31
2023-04-02T01:02:19.907Z,8.24
2023-04-02T01:04:58.950Z,8.20
2023-04-02T01:07:49.926Z,8.20
2023-04-02T01:11:04.052Z,8.26
2023-04-02T01:13:42.229Z,8.28
2023-04-02T01:16:31.025Z,8.24
2023-04-02T01:19:32.293Z,8.22
2023-04-02T01:22:25.822Z,8.08
2023-04-02T01:24:56.404Z,7.99
2023-04-02T01:27:29.826Z,7.90
2023-04-02T01:29:58.941Z,7.76
2023-04-02T01:32:29.211Z,7.59
2023-04-02T01:34:57.180Z,7.54
2023-04-02T01:37:35.475Z,7.49
2023-04-02T01:40:20.395Z,7.39
2023-04-02T01:43:25.674Z,7.31
2023-04-02T01:45:52.447Z,7.21
2023-04-02T01:48:22.841Z,7.12
2023-04-02T01:50:51.692Z,7.05
2023-04-02T01:53:21.036Z,6.99
2023-04-02T01:55:53.561Z,6.92
2023-04-02T01:58:24.661Z,6.95
2023-04-02T02:01:04.719Z,6.93
2023-04-02T02:03:31.266Z,6.88
2023-04-02T02:05:58.496Z,6.80
2023-04-02T02:08:32.760Z,6.70
2023-04-02T02:10:59.332Z,6.55
2023-04-02T02:13:25.873Z,6.50
2023-04-02T02:15:52.485Z,6.46
2023-04-02T02:18:23.147Z,6.38
2023-04-02T02:20:52.007Z,6.28
2023-04-02T02:23:22.684Z,6.19
2023-04-02T02:25:49.357Z,6.18
2023-04-02T02:28:21.286Z,6.11
2023-04-02T02:31:02.660Z,6.04
2023-04-02T02:33:37.136Z,6.04
2023-04-02T02:36:16.613Z,6.04
2023-04-02T02:39:07.047Z,5.97
2023-04-02T02:41:41.291Z,5.99
2023-04-02T02:44:10.463Z,5.97
2023-04-02T02:46:46.489Z,5.87
2023-04-02T02:49:18.077Z,5.84
2023-04-02T02:51:48.143Z,5.77
2023-04-02T02:54:17.327Z,5.76
2023-04-02T02:56:50.540Z,5.79
2023-04-02T02:59:18.706Z,5.78
2023-04-02T03:01:46.962Z,5.75
2023-04-02T03:04:19.099Z,5.69
2023-04-02T03:06:48.901Z,5.66
2023-04-02T03:09:37.304Z,5.64
2023-04-02T03:12:29.610Z,5.59
2023-04-02T03:15:23.758Z,5.45
2023-04-02T03:18:06.656Z,5.33
2023-04-02T03:20:44.426Z,5.31
2023-04-02T03:23:22.985Z,5.34
2023-04-02T03:26:01.405Z,5.35
2023-04-02T03:28:32.568Z,5.20
2023-04-02T03:31:06.593Z,5.17
2023-04-02T03:33:40.715Z,5.23
2023-04-02T03:36:19.251Z,5.23
2023-04-02T03:38:52.323Z,5.16
2023-04-02T03:41:25.977Z,5.18
2023-04-02T03:44:00.056Z,5.15
2023-04-02T03:46:44.659Z,4.99
2023-04-02T03:49:19.226Z,4.97
2023-04-02T03:52:04.818Z,5.01
2023-04-02T03:54:31.678Z,4.98
2023-04-02T03:56:59.360Z,4.99
2023-04-02T03:59:38.581Z,4.97
2023-04-02T04:02:45.426Z,4.91
2023-04-02T04:05:23.163Z,4.87
2023-04-02T04:07:53.659Z,4.76
2023-04-02T04:10:25.998Z,4.69
2023-04-02T04:12:56.488Z,4.60
2023-04-02T04:15:27.412Z,4.61
2023-04-02T04:17:53.926Z,4.67
2023-04-02T04:20:25.943Z,4.67
2023-04-02T04:22:52.607Z,4.53
2023-04-02T04:25:28.274Z,4.55
2023-04-02T04:28:15.893Z,4.54
2023-04-02T04:31:03.784Z,4.55
2023-04-02T04:33:40.477Z,4.55
2023-04-02T04:36:21.161Z,4.58
2023-04-02T04:38:51.077Z,4.51
2023-04-02T04:41:23.873Z,4.60
2023-04-02T04:44:11.738Z,4.58
2023-04-02T04:46:45.147Z,4.66
2023-04-02T04:49:18.273Z,4.71
2023-04-02T04:52:08.948Z,4.71
2023-04-02T04:54:39.026Z,4.77
2023-04-02T04:57:17.640Z,4.75
2023-04-02T04:59:58.586Z,4.78
2023-04-02T05:02:32.245Z,4.77
2023-04-02T05:05:00.631Z,4.79
2023-04-02T05:07:32.626Z,4.84
2023-04-02T05:10:03.472Z,4.88
2023-04-02T05:12:51.218Z,4.91
2023-04-02T05:15:29.347Z,5.00
2023-04-02T05:18:23.073Z,5.31
2023-04-02T05:21:13.916Z,6.51
2023-04-02T05:23:49.726Z,8.26
2023-04-02T05:26:21.846Z,10.05
2023-04-02T05:29:00.747Z,11.49
2023-04-02T05:31:49.242Z,12.61
2023-04-02T05:34:25.478Z,13.42
2023-04-02T05:36:51.974Z,13.84
2023-04-02T05:39:22.945Z,14.51
2023-04-02T05:42:00.726Z,15.22
2023-04-02T05:44:30.989Z,15.99
2023-04-02T05:47:05.522Z,16.46
2023-04-02T05:49:50.076Z,16.72
2023-04-02T05:52:27.421Z,16.97
2023-04-02T05:55:06.317Z,17.63
2023-04-02T05:57:46.817Z,18.20
2023-04-02T06:00:23.610Z,18.15
2023-04-02T06:03:02.236Z,18.30
2023-04-02T06:05:36.825Z,18.65
2023-04-02T06:08:10.781Z,18.75
2023-04-02T06:10:53.553Z,19.02
2023-04-02T06:13:20.431Z,18.76
2023-04-02T06:15:47.837Z,18.68
2023-04-02T06:18:27.200Z,18.40
2023-04-02T06:20:54.672Z,18.60
2023-04-02T06:23:47.152Z,18.56
2023-04-02T06:26:22.747Z,18.60
2023-04-02T06:28:56.142Z,18.17
2023-04-02T06:31:34.461Z,18.57
2023-04-02T06:34:01.116Z,18.41
2023-04-02T06:36:28.069Z,18.96
2023-04-02T06:38:57.228Z,18.80
2023-04-02T06:41:25.281Z,19.11
2023-04-02T06:44:07.187Z,19.16
2023-04-02T06:46:45.584Z,19.47
2023-04-02T06:49:28.428Z,19.40
2023-04-02T06:51:56.347Z,19.57
2023-04-02T06:54:22.930Z,19.60
2023-04-02T06:56:54.561Z,19.73
2023-04-02T06:59:21.108Z,19.22
2023-04-02T07:02:27.133Z,19.36
2023-04-02T07:05:01.970Z,19.80
2023-04-02T07:07:28.515Z,19.92
2023-04-02T07:09:54.995Z,19.82
2023-04-02T07:12:25.201Z,20.13
2023-04-02T07:14:52.390Z,20.27
2023-04-02T07:17:19.661Z,19.46
2023-04-02T07:19:47.089Z,19.22
2023-04-02T07:22:13.514Z,18.99
2023-04-02T07:24:39.950Z,18.99
2023-04-02T07:27:06.469Z,19.49
2023-04-02T07:29:32.906Z,19.68
2023-04-02T07:31:59.340Z,19.85
2023-04-02T07:34:25.795Z,20.09
2023-04-02T07:36:52.314Z,20.43
2023-04-02T07:39:18.746Z,20.31
2023-04-02T07:42:00.190Z,20.58
2023-04-02T07:44:27.287Z,20.86
2023-04-02T07:46:54.133Z,20.94
2023-04-02T07:49:21.162Z,21.23
2023-04-02T07:51:47.620Z,21.37
2023-04-02T07:54:14.104Z,21.10
2023-04-02T07:56:40.571Z,20.81
2023-04-02T07:59:07.079Z,20.99
2023-04-02T08:01:33.515Z,21.28
2023-04-02T08:04:00.034Z,21.10
2023-04-02T08:06:26.468Z,20.65
2023-04-02T08:08:53.090Z,21.03
2023-04-02T08:11:19.859Z,20.71
2023-04-02T08:13:46.691Z,20.85
2023-04-02T08:16:13.455Z,21.16
2023-04-02T08:18:40.269Z,21.25
2023-04-02T08:21:09.061Z,21.35
2023-04-02T08:23:36.244Z,21.12
2023-04-02T08:26:03.406Z,21.04
2023-04-02T08:28:29.985Z,20.45
2023-04-02T08:30:56.532Z,20.52
2023-04-02T08:33:23.106Z,20.56
2023-04-02T08:35:50.725Z,20.50
2023-04-02T08:38:19.131Z,20.55
2023-04-02T08:40:49.137Z,20.48
2023-04-02T08:43:30.802Z,20.48
2023-04-02T08:46:21.725Z,20.18
2023-04-02T08:48:53.915Z,20.04
2023-04-02T08:51:27.664Z,19.83
2023-04-02T08:53:59.809Z,19.75
2023-04-02T08:56:33.531Z,19.97
2023-04-02T08:59:07.393Z,20.21
2023-04-02T09:01:33.836Z,19.94
2023-04-02T09:04:02.127Z,19.79
2023-04-02T09:06:29.446Z,19.97
2023-04-02T09:08:57.509Z,19.91
2023-04-02T09:11:25.279Z,19.76
2023-04-02T09:13:57.759Z,19.98
2023-04-02T09:16:39.324Z,20.20
2023-04-02T09:19:16.290Z,20.32
2023-04-02T09:22:16.359Z,20.73
2023-04-02T09:24:42.862Z,20.94
2023-04-02T09:27:21.977Z,21.46
2023-04-02T09:30:07.535Z,21.76
2023-04-02T09:32:55.970Z,21.42
2023-04-02T09:35:39.116Z,21.07
2023-04-02T09:38:11.717Z,21.18
2023-04-02T09:40:59.474Z,21.06
2023-04-02T09:43:28.825Z,20.82
2023-04-02T09:46:05.579Z,20.86
2023-04-02T09:48:38.322Z,20.99
2023-04-02T09:51:07.102Z,20.72
2023-04-02T09:53:41.866Z,20.66
2023-04-02T09:56:20.450Z,20.57
2023-04-02T09:59:05.344Z,20.81
2023-04-02T10:01:33.209Z,20.56
2023-04-02T10:04:00.238Z,20.77
2023-04-02T10:06:29.373Z,20.94
2023-04-02T10:08:56.062Z,21.28
2023-04-02T10:11:36.403Z,21.74
2023-04-02T10:14:21.525Z,21.78
2023-04-02T10:16:53.891Z,21.53
2023-04-02T10:19:23.125Z,21.46
2023-04-02T10:21:50.358Z,21.65
2023-04-02T10:24:17.330Z,21.75
2023-04-02T10:27:10.033Z,21.86
2023-04-02T10:29:48.387Z,21.46
2023-04-02T10:32:23.687Z,21.07
2023-04-02T10:35:03.508Z,21.53
2023-04-02T10:37:54.030Z,21.38
2023-04-02T10:41:00.536Z,20.84
2023-04-02T10:43:35.990Z,21.08
2023-04-02T10:46:12.421Z,21.25
2023-04-02T10:49:01.600Z,21.09
2023-04-02T10:51:37.177Z,20.73
2023-04-02T10:54:21.127Z,20.39
2023-04-02T10:56:51.391Z,20.26
2023-04-02T10:59:32.143Z,20.65
2023-04-02T11:02:03.854Z,20.59
2023-04-02T11:04:41.084Z,20.52
2023-04-02T11:07:22.625Z,20.55
2023-04-02T11:09:53.627Z,20.41
2023-04-02T11:12:51.607Z,20.12
2023-04-02T11:15:19.836Z,19.97
2023-04-02T11:17:47.164Z,20.01
2023-04-02T11:20:47.616Z,19.77
2023-04-02T11:23:18.487Z,19.71
2023-04-02T11:25:46.440Z,19.57
2023-04-02T11:28:20.008Z,19.44
2023-04-02T11:30:48.752Z,19.25
2023-04-02T11:33:43.088Z,19.07
2023-04-02T11:36:48.661Z,19.28
2023-04-02T11:39:51.659Z,19.39
2023-04-02T11:42:18.046Z,19.40
2023-04-02T11:44:44.969Z,19.60
2023-04-02T11:47:25.454Z,19.69
2023-04-02T11:49:54.762Z,19.86
2023-04-02T11:52:25.486Z,19.90
2023-04-02T11:55:14.661Z,19.62
2023-04-02T11:57:51.391Z,19.69
2023-04-02T12:00:51.504Z,19.68
2023-04-02T12:03:26.921Z,19.80
2023-04-02T12:06:29.574Z,19.78
2023-04-02T12:09:01.739Z,19.63
2023-04-02T12:11:37.774Z,19.77
2023-04-02T12:14:43.427Z,19.78
2023-04-02T12:17:39.512Z,19.59
2023-04-02T12:20:08.810Z,19.60
2023-04-02T12:22:39.048Z,19.46
2023-04-02T12:25:21.417Z,19.32
2023-04-02T12:27:48.545Z,19.25
2023-04-02T12:30:23.240Z,19.28
2023-04-02T12:32:50.323Z,19.25
2023-04-02T12:35:30.693Z,19.30
2023-04-02T12:37:57.173Z,19.31
2023-04-02T12:40:25.214Z,19.24
2023-04-02T12:42:51.765Z,19.25
2023-04-02T12:45:25.240Z,19.21
2023-04-02T12:47:53.159Z,19.13
2023-04-02T12:50:21.133Z,19.19
2023-04-02T12:52:51.076Z,19.51
2023-04-02T12:55:21.679Z,19.75
2023-04-02T12:57:48.312Z,20.02
2023-04-02T13:00:20.504Z,20.22
2023-04-02T13:02:50.648Z,20.51
2023-04-02T13:05:38.152Z,20.35
2023-04-02T13:08:05.072Z,20.42
2023-04-02T13:10:31.820Z,20.35
2023-04-02T13:13:00.704Z,20.35
2023-04-02T13:15:30.561Z,20.14
2023-04-02T13:18:15.449Z,20.19
2023-04-02T13:20:43.289Z,20.23
2023-04-02T13:23:31.134Z,20.18
2023-04-02T13:26:14.258Z,20.14
2023-04-02T13:28:40.730Z,19.87
2023-04-02T13:31:15.344Z,19.76
2023-04-02T13:33:41.863Z,19.55
2023-04-02T13:36:13.875Z,19.49
2023-04-02T13:38:40.743Z,19.49
2023-04-02T13:41:20.327Z,19.63
2023-04-02T13:43:47.107Z,19.91
2023-04-02T13:46:20.101Z,19.98
2023-04-02T13:48:46.738Z,20.03
2023-04-02T13:51:17.880Z,20.08
2023-04-02T13:53:47.120Z,19.90
2023-04-02T13:56:13.589Z,19.86
2023-04-02T13:58:40.107Z,19.75
2023-04-02T14:01:06.646Z,19.63
2023-04-02T14:03:33.187Z,19.44
2023-04-02T14:06:08.929Z,19.28
2023-04-02T14:09:02.986Z,18.96
2023-04-02T14:11:50.300Z,18.71
2023-04-02T14:14:31.991Z,18.62
2023-04-02T14:17:21.215Z,18.28
2023-04-02T14:20:21.005Z,18.07
2023-04-02T14:22:47.414Z,18.01
2023-04-02T14:25:43.005Z,17.93
2023-04-02T14:28:30.693Z,17.99
2023-04-02T14:31:24.732Z,18.03
2023-04-02T14:34:13.691Z,18.02
2023-04-02T14:36:59.563Z,18.12
2023-04-02T14:39:42.612Z,18.13
2023-04-02T14:42:30.226Z,18.08
2023-04-02T14:45:04.988Z,17.88
2023-04-02T14:47:55.895Z,17.80
2023-04-02T14:50:29.484Z,17.72
2023-04-02T14:53:01.829Z,17.63
2023-04-02T14:55:35.704Z,17.52
2023-04-02T14:58:09.649Z,17.41
2023-04-02T15:00:41.710Z,17.40
2023-04-02T15:03:17.922Z,17.33
2023-04-02T15:05:50.076Z,17.20
2023-04-02T15:08:24.412Z,17.12
2023-04-02T15:11:08.936Z,16.97
2023-04-02T15:13:42.951Z,16.90
2023-04-02T15:16:21.234Z,16.95
2023-04-02T15:18:52.894Z,16.93
2023-04-02T15:21:19.291Z,17.00
2023-04-02T15:23:57.882Z,17.13
2023-04-02T15:26:42.500Z,17.18
2023-04-02T15:29:44.563Z,17.12
2023-04-02T15:32:30.172Z,17.02
2023-04-02T15:35:05.621Z,16.92
2023-04-02T15:38:05.735Z,16.79
2023-04-02T15:40:50.604Z,16.64
2023-04-02T15:43:46.118Z,16.50
2023-04-02T15:46:29.966Z,16.41
2023-04-02T15:49:05.411Z,16.31
2023-04-02T15:51:40.931Z,16.25
2023-04-02T15:54:29.809Z,16.14
2023-04-02T15:57:21.797Z,16.09
2023-04-02T15:59:51.068Z,16.15
2023-04-02T16:02:29.637Z,16.16
2023-04-02T16:05:05.387Z,16.12
2023-04-02T16:07:53.161Z,16.12
2023-04-02T16:10:39.984Z,16.05
2023-04-02T16:13:31.898Z,16.09
2023-04-02T16:16:34.895Z,16.02
2023-04-02T16:19:02.438Z,15.93
2023-04-02T16:21:33.088Z,15.84
2023-04-02T16:23:59.705Z,15.73
2023-04-02T16:26:47.300Z,15.72
2023-04-02T16:29:22.398Z,15.63
2023-04-02T16:32:07.434Z,15.48
2023-04-02T16:35:24.780Z,15.40
2023-04-02T16:37:57.966Z,15.30
2023-04-02T16:41:07.058Z,15.11
2023-04-02T16:43:43.932Z,14.98
2023-04-02T16:46:39.083Z,14.84
2023-04-02T16:49:24.322Z,14.73
2023-04-02T16:52:32.323Z,14.60
2023-04-02T16:55:25.993Z,14.42
2023-04-02T16:58:28.670Z,14.29
2023-04-02T17:01:02.032Z,14.13
2023-04-02T17:03:43.625Z,13.95
2023-04-02T17:06:12.975Z,13.77
2023-04-02T17:08:44.126Z,13.69
2023-04-02T17:11:42.762Z,13.68
2023-04-02T17:14:30.902Z,13.58
2023-04-02T17:17:01.423Z,13.50
2023-04-02T17:19:29.708Z,13.38
2023-04-02T17:22:04.703Z,13.24
2023-04-02T17:24:42.639Z,13.16
2023-04-02T17:27:16.749Z,13.02
2023-04-02T17:29:48.353Z,13.00
2023-04-02T17:32:27.884Z,12.81
2023-04-02T17:34:54.529Z,12.57
2023-04-02T17:37:33.134Z,12.38
2023-04-02T17:40:25.180Z,12.19
2023-04-02T17:43:28.044Z,12.14
2023-04-02T17:45:56.854Z,11.98
2023-04-02T17:48:38.821Z,11.74
2023-04-02T17:51:05.212Z,11.79
2023-04-02T17:53:31.592Z,11.79
2023-04-02T17:56:29.682Z,11.71
2023-04-02T17:59:07.186Z,11.68
2023-04-02T18:01:36.602Z,11.61
2023-04-02T18:04:18.062Z,11.45
2023-04-02T18:07:06.013Z,11.44
2023-04-02T18:09:35.162Z,11.37
2023-04-02T18:12:01.810Z,11.19
2023-04-02T18:14:31.111Z,11.19
2023-04-02T18:17:15.752Z,11.10
2023-04-02T18:19:54.045Z,11.05
2023-04-02T18:22:37.889Z,10.98
2023-04-02T18:25:16.666Z,10.92
2023-04-02T18:27:58.215Z,10.95
2023-04-02T18:30:45.924Z,10.82
2023-04-02T18:33:30.922Z,10.62
2023-04-02T18:36:23.417Z,10.63
2023-04-02T18:39:01.991Z,10.61
2023-04-02T18:41:28.387Z,10.54
2023-04-02T18:44:14.827Z,10.56
2023-04-02T18:46:52.084Z,10.47
2023-04-02T18:49:43.429Z,10.32
2023-04-02T18:52:14.173Z,10.30
2023-04-02T18:54:51.422Z,10.23
2023-04-02T18:57:24.157Z,10.19
2023-04-02T19:00:04.754Z,10.08
2023-04-02T19:02:46.325Z,10.07
2023-04-02T19:05:30.776Z,9.84
2023-04-02T19:08:41.840Z,9.73
2023-04-02T19:11:18.566Z,9.58
2023-04-02T19:13:45.088Z,9.43
2023-04-02T19:16:17.438Z,9.29
2023-04-02T19:18:56.982Z,9.28
2023-04-02T19:21:29.265Z,9.34
2023-04-02T19:24:06.425Z,9.34
2023-04-02T19:26:39.854Z,9.32
2023-04-02T19:29:16.677Z,9.22
2023-04-02T19:32:04.711Z,9.25
2023-04-02T19:34:51.619Z,9.22
2023-04-02T19:37:41.126Z,9.19
2023-04-02T19:40:13.736Z,9.08
2023-04-02T19:42:45.070Z,9.07
2023-04-02T19:45:24.325Z,9.03
2023-04-02T19:47:50.904Z,8.86
2023-04-02T19:50:17.499Z,8.81
2023-04-02T19:52:43.946Z,8.69
2023-04-02T19:55:10.437Z,8.53
2023-04-02T19:57:37.011Z,8.48
2023-04-02T20:00:04.184Z,8.51
2023-04-02T20:02:30.689Z,8.36
2023-04-02T20:04:57.162Z,8.43
2023-04-02T20:07:23.644Z,8.38
2023-04-02T20:09:50.088Z,8.47
2023-04-02T20:12:16.531Z,8.38
2023-04-02T20:14:43.138Z,8.34
2023-04-02T20:17:09.580Z,8.39
2023-04-02T20:19:36.008Z,8.14
2023-04-02T20:22:02.505Z,8.11
2023-04-02T20:24:28.987Z,8.06
2023-04-02T20:26:55.444Z,8.09
2023-04-02T20:29:21.909Z,7.94
2023-04-02T20:31:48.394Z,7.98
2023-04-02T20:34:15.212Z,8.00
2023-04-02T20:36:41.753Z,8.02
2023-04-02T20:39:08.190Z,8.00
2023-04-02T20:41:34.772Z,7.83
2023-04-02T20:44:01.257Z,7.83
2023-04-02T20:46:27.752Z,7.80
2023-04-02T20:48:54.240Z,7.83
2023-04-02T20:51:20.877Z,7.73
2023-04-02T20:53:47.359Z,7.66
2023-04-02T20:56:16.427Z,7.62
2023-04-02T20:58:43.985Z,7.54
2023-04-02T21:01:22.389Z,7.54
2023-04-02T21:03:49.979Z,7.47
2023-04-02T21:06:19.140Z,7.47
2023-04-02T21:08:46.247Z,7.47
2023-04-02T21:11:13.227Z,7.37
2023-04-02T21:13:40.388Z,7.33
2023-04-02T21:16:14.318Z,7.35
2023-04-02T21:18:40.779Z,7.40
2023-04-02T21:21:07.296Z,7.37
2023-04-02T21:23:34.325Z,7.29
2023-04-02T21:26:05.747Z,7.22
2023-04-02T21:28:34.389Z,7.15
2023-04-02T21:31:13.183Z,7.15
2023-04-02T21:33:42.283Z,7.09
2023-04-02T21:36:14.674Z,7.07
2023-04-02T21:38:49.416Z,6.98
2023-04-02T21:41:25.413Z,6.92
2023-04-02T21:43:52.622Z,6.83
2023-04-02T21:46:21.776Z,6.74
2023-04-02T21:48:49.699Z,6.83
2023-04-02T21:51:18.599Z,6.84
2023-04-02T21:53:46.080Z,6.88
2023-04-02T21:56:15.135Z,6.81
2023-04-02T21:58:41.646Z,6.78
2023-04-02T22:01:14.072Z,6.75
2023-04-02T22:03:47.449Z,6.69
2023-04-02T22:06:18.758Z,6.62
2023-04-02T22:08:46.830Z,6.62
2023-04-02T22:11:16.756Z,6.53
2023-04-02T22:13:44.753Z,6.50
2023-04-02T22:16:16.549Z,6.49
2023-04-02T22:18:43.969Z,6.50
2023-04-02T22:21:11.628Z,6.30
2023-04-02T22:23:39.287Z,6.41
2023-04-02T22:26:07.234Z,6.34
2023-04-02T22:28:34.504Z,6.33
2023-04-02T22:31:11.375Z,6.32
2023-04-02T22:33:38.388Z,6.30
2023-04-02T22:36:05.308Z,6.02
2023-04-02T22:38:32.352Z,6.05
2023-04-02T22:41:10.002Z,6.02
2023-04-02T22:43:37.159Z,5.97
2023-04-02T22:46:05.845Z,5.91
2023-04-02T22:48:32.994Z,5.90
2023-04-02T22:50:59.466Z,5.90
2023-04-02T22:53:26.014Z,5.87
2023-04-02T22:55:53.122Z,5.77
2023-04-02T22:58:20.828Z,5.65
2023-04-02T23:00:48.371Z,5.65
2023-04-02T23:03:14.887Z,5.71
2023-04-02T23:05:41.350Z,5.76
2023-04-02T23:08:07.913Z,5.88
2023-04-02T23:10:34.425Z,5.86
2023-04-02T23:13:00.976Z,5.76
2023-04-02T23:15:27.437Z,5.66
2023-04-02T23:17:53.927Z,5.64
2023-04-02T23:20:20.468Z,5.57
2023-04-02T23:22:46.970Z,5.42
2023-04-02T23:25:13.412Z,5.54
2023-04-02T23:27:39.873Z,5.47
2023-04-02T23:30:07.151Z,5.46
2023-04-02T23:32:33.684Z,5.47
2023-04-02T23:35:00.200Z,5.46
2023-04-02T23:37:26.657Z,5.54
2023-04-02T23:39:53.068Z,5.47
2023-04-02T23:42:19.584Z,5.46
2023-04-02T23:44:46.022Z,5.47
2023-04-02T23:47:12.537Z,5.43
2023-04-02T23:49:39.108Z,5.43
2023-04-02T23:52:05.632Z,5.33
2023-04-02T23:54:32.108Z,5.33
2023-04-02T23:56:58.574Z,5.29
2023-04-02T23:59:25.030Z,5.28
